sensor_id;sensor_type;location;lat;lon;timestamp;pressure;altitude;pressure_sealevel;temperature;humidity
36234;BME280;43467;50.890;5.982;2023-03-16T00:00:13;100438.53;;;8.00;53.02
36234;BME280;43467;50.890;5.982;2023-03-16T00:02:40;100433.13;;;8.04;53.31
36234;BME280;43467;50.890;5.982;2023-03-16T00:05:07;100421.06;;;7.97;53.29
36234;BME280;43467;50.890;5.982;2023-03-16T00:07:33;100427.56;;;8.13;53.39
36234;BME280;43467;50.890;5.982;2023-03-16T00:09:59;100430.34;;;8.09;52.90
36234;BME280;43467;50.890;5.982;2023-03-16T00:12:24;100427.81;;;8.06;52.41
36234;BME280;43467;50.890;5.982;2023-03-16T00:14:50;100418.72;;;8.14;52.95
36234;BME280;43467;50.890;5.982;2023-03-16T00:17:17;100412.47;;;8.17;52.80
36234;BME280;43467;50.890;5.982;2023-03-16T00:19:49;100426.50;;;8.19;52.72
36234;BME280;43467;50.890;5.982;2023-03-16T00:22:19;100424.47;;;8.27;52.91
36234;BME280;43467;50.890;5.982;2023-03-16T00:24:45;100425.31;;;8.27;52.13
36234;BME280;43467;50.890;5.982;2023-03-16T00:27:12;100414.50;;;8.09;52.52
36234;BME280;43467;50.890;5.982;2023-03-16T00:29:40;100418.72;;;8.14;52.73
36234;BME280;43467;50.890;5.982;2023-03-16T00:32:18;100420.03;;;8.01;52.99
36234;BME280;43467;50.890;5.982;2023-03-16T00:34:45;100408.50;;;8.04;52.95
36234;BME280;43467;50.890;5.982;2023-03-16T00:37:13;100400.81;;;7.98;53.11
36234;BME280;43467;50.890;5.982;2023-03-16T00:39:42;100390.06;;;8.04;53.15
36234;BME280;43467;50.890;5.982;2023-03-16T00:42:09;100390.06;;;8.04;53.36
36234;BME280;43467;50.890;5.982;2023-03-16T00:44:36;100381.38;;;8.00;53.28
36234;BME280;43467;50.890;5.982;2023-03-16T00:47:05;100390.06;;;8.04;53.54
36234;BME280;43467;50.890;5.982;2023-03-16T00:49:34;100388.44;;;8.00;53.14
36234;BME280;43467;50.890;5.982;2023-03-16T00:52:04;100382.16;;;8.04;53.60
36234;BME280;43467;50.890;5.982;2023-03-16T00:54:30;100379.59;;;8.02;53.63
36234;BME280;43467;50.890;5.982;2023-03-16T00:56:59;100369.34;;;7.93;53.88
36234;BME280;43467;50.890;5.982;2023-03-16T00:59:25;100376.13;;;8.00;54.23
36234;BME280;43467;50.890;5.982;2023-03-16T01:01:51;100373.84;;;7.89;54.14
36234;BME280;43467;50.890;5.982;2023-03-16T01:04:17;100363.69;;;7.77;54.30
36234;BME280;43467;50.890;5.982;2023-03-16T01:06:44;100373.28;;;7.80;54.48
36234;BME280;43467;50.890;5.982;2023-03-16T01:09:09;100374.66;;;7.91;54.50
36234;BME280;43467;50.890;5.982;2023-03-16T01:11:35;100370.94;;;7.97;53.92
36234;BME280;43467;50.890;5.982;2023-03-16T01:14:00;100364.84;;;7.95;53.71
36234;BME280;43467;50.890;5.982;2023-03-16T01:16:26;100363.63;;;8.07;53.82
36234;BME280;43467;50.890;5.982;2023-03-16T01:18:52;100350.44;;;8.07;53.37
36234;BME280;43467;50.890;5.982;2023-03-16T01:21:19;100346.16;;;8.03;53.17
36234;BME280;43467;50.890;5.982;2023-03-16T01:23:46;100344.31;;;8.05;53.51
36234;BME280;43467;50.890;5.982;2023-03-16T01:26:11;100333.94;;;8.00;53.39
36234;BME280;43467;50.890;5.982;2023-03-16T01:28:37;100333.75;;;8.06;53.34
36234;BME280;43467;50.890;5.982;2023-03-16T01:31:08;100334.59;;;8.07;52.36
36234;BME280;43467;50.890;5.982;2023-03-16T01:33:34;100325.97;;;8.02;53.15
36234;BME280;43467;50.890;5.982;2023-03-16T01:36:05;100325.84;;;8.06;52.72
36234;BME280;43467;50.890;5.982;2023-03-16T01:38:31;100322.59;;;7.98;52.69
36234;BME280;43467;50.890;5.982;2023-03-16T01:40:58;100322.19;;;8.10;53.51
36234;BME280;43467;50.890;5.982;2023-03-16T01:43:26;100321.63;;;8.01;52.99
36234;BME280;43467;50.890;5.982;2023-03-16T01:48:27;100310.69;;;8.11;52.49
36234;BME280;43467;50.890;5.982;2023-03-16T01:50:54;100302.69;;;8.14;52.17
36234;BME280;43467;50.890;5.982;2023-03-16T01:53:21;100297.31;;;8.17;52.44
36234;BME280;43467;50.890;5.982;2023-03-16T01:55:49;100301.69;;;8.18;52.30
36234;BME280;43467;50.890;5.982;2023-03-16T01:58:15;100296.75;;;8.08;52.50
36234;BME280;43467;50.890;5.982;2023-03-16T02:00:40;100297.47;;;8.13;51.90
36234;BME280;43467;50.890;5.982;2023-03-16T02:03:17;100299.34;;;8.09;51.67
36234;BME280;43467;50.890;5.982;2023-03-16T02:05:51;100295.72;;;8.12;52.02
36234;BME280;43467;50.890;5.982;2023-03-16T02:08:19;100293.31;;;8.06;51.93
36234;BME280;43467;50.890;5.982;2023-03-16T02:10:47;100287.81;;;8.12;52.12
36234;BME280;43467;50.890;5.982;2023-03-16T02:13:13;100293.84;;;8.15;52.28
36234;BME280;43467;50.890;5.982;2023-03-16T02:15:39;100292.03;;;8.17;51.83
36234;BME280;43467;50.890;5.982;2023-03-16T02:18:04;100302.31;;;8.25;51.95
36234;BME280;43467;50.890;5.982;2023-03-16T02:20:40;100293.69;;;8.20;51.42
36234;BME280;43467;50.890;5.982;2023-03-16T02:23:07;100287.75;;;8.15;51.25
36234;BME280;43467;50.890;5.982;2023-03-16T02:28:31;100282.34;;;8.18;51.38
36234;BME280;43467;50.890;5.982;2023-03-16T02:30:58;100294.66;;;8.17;51.87
36234;BME280;43467;50.890;5.982;2023-03-16T02:33:24;100286.16;;;8.09;52.13
36234;BME280;43467;50.890;5.982;2023-03-16T02:35:50;100282.53;;;8.12;51.87
36234;BME280;43467;50.890;5.982;2023-03-16T02:38:16;100279.91;;;8.12;52.20
36234;BME280;43467;50.890;5.982;2023-03-16T02:40:43;100276.63;;;8.05;52.24
36234;BME280;43467;50.890;5.982;2023-03-16T02:43:19;100268.50;;;8.11;52.26
36234;BME280;43467;50.890;5.982;2023-03-16T02:45:56;100278.69;;;7.97;52.46
36234;BME280;43467;50.890;5.982;2023-03-16T02:48:28;100272.28;;;8.04;52.62
36234;BME280;43467;50.890;5.982;2023-03-16T02:50:57;100281.91;;;8.05;52.46
36234;BME280;43467;50.890;5.982;2023-03-16T02:53:23;100279.75;;;7.91;52.66
36234;BME280;43467;50.890;5.982;2023-03-16T02:55:48;100276.78;;;8.01;52.64
36234;BME280;43467;50.890;5.982;2023-03-16T02:58:15;100282.91;;;8.03;52.53
36234;BME280;43467;50.890;5.982;2023-03-16T03:00:41;100275.22;;;7.95;52.44
36234;BME280;43467;50.890;5.982;2023-03-16T03:03:07;100272.34;;;8.03;52.54
36234;BME280;43467;50.890;5.982;2023-03-16T03:05:34;100263.59;;;8.01;52.30
36234;BME280;43467;50.890;5.982;2023-03-16T03:07:59;100261.63;;;7.82;52.72
36234;BME280;43467;50.890;5.982;2023-03-16T03:10:25;100259.75;;;7.86;52.47
36234;BME280;43467;50.890;5.982;2023-03-16T03:12:50;100261.56;;;7.84;52.59
36234;BME280;43467;50.890;5.982;2023-03-16T03:15:17;100250.75;;;7.91;52.63
36234;BME280;43467;50.890;5.982;2023-03-16T03:17:42;100249.94;;;7.89;52.59
36234;BME280;43467;50.890;5.982;2023-03-16T03:20:10;100255.97;;;7.93;53.13
36234;BME280;43467;50.890;5.982;2023-03-16T03:22:41;100258.16;;;7.80;53.18
36234;BME280;43467;50.890;5.982;2023-03-16T03:25:07;100247.25;;;7.91;53.08
36234;BME280;43467;50.890;5.982;2023-03-16T03:27:33;100244.56;;;7.66;53.36
36234;BME280;43467;50.890;5.982;2023-03-16T03:29:59;100253.00;;;7.77;53.43
36234;BME280;43467;50.890;5.982;2023-03-16T03:32:24;100244.19;;;7.78;53.16
36234;BME280;43467;50.890;5.982;2023-03-16T03:34:49;100241.03;;;7.67;53.61
36234;BME280;43467;50.890;5.982;2023-03-16T03:37:15;100256.19;;;7.61;54.30
36234;BME280;43467;50.890;5.982;2023-03-16T03:39:41;100237.66;;;7.64;53.84
36234;BME280;43467;50.890;5.982;2023-03-16T03:42:06;100239.97;;;7.73;53.92
36234;BME280;43467;50.890;5.982;2023-03-16T03:44:32;100241.56;;;7.78;54.06
36234;BME280;43467;50.890;5.982;2023-03-16T03:46:59;100236.97;;;7.83;53.77
36234;BME280;43467;50.890;5.982;2023-03-16T03:49:24;100236.91;;;7.85;53.97
36234;BME280;43467;50.890;5.982;2023-03-16T03:51:50;100242.22;;;7.83;54.15
36234;BME280;43467;50.890;5.982;2023-03-16T03:54:15;100239.13;;;7.72;53.98
36234;BME280;43467;50.890;5.982;2023-03-16T03:56:41;100236.75;;;7.65;54.50
36234;BME280;43467;50.890;5.982;2023-03-16T03:59:06;100236.78;;;7.63;54.49
36234;BME280;43467;50.890;5.982;2023-03-16T04:01:32;100246.56;;;7.60;54.39
36234;BME280;43467;50.890;5.982;2023-03-16T04:03:57;100247.28;;;7.65;54.65
36234;BME280;43467;50.890;5.982;2023-03-16T04:06:22;100242.66;;;7.71;54.58
36234;BME280;43467;50.890;5.982;2023-03-16T04:08:48;100244.38;;;7.72;54.40
36234;BME280;43467;50.890;5.982;2023-03-16T04:11:13;100249.66;;;7.72;54.33
36234;BME280;43467;50.890;5.982;2023-03-16T04:13:39;100248.69;;;7.75;54.44
36234;BME280;43467;50.890;5.982;2023-03-16T04:16:04;100251.31;;;7.75;54.34
36234;BME280;43467;50.890;5.982;2023-03-16T04:18:30;100248.63;;;7.76;54.21
36234;BME280;43467;50.890;5.982;2023-03-16T04:21:06;100257.38;;;7.78;54.56
36234;BME280;43467;50.890;5.982;2023-03-16T04:23:33;100250.06;;;7.86;54.44
36234;BME280;43467;50.890;5.982;2023-03-16T04:25:59;100253.44;;;7.90;54.34
36234;BME280;43467;50.890;5.982;2023-03-16T04:28:25;100251.69;;;7.90;54.40
36234;BME280;43467;50.890;5.982;2023-03-16T04:30:51;100244.44;;;7.95;54.15
36234;BME280;43467;50.890;5.982;2023-03-16T04:33:19;100236.53;;;7.95;54.25
36234;BME280;43467;50.890;5.982;2023-03-16T04:35:44;100233.69;;;8.02;53.91
36234;BME280;43467;50.890;5.982;2023-03-16T04:38:10;100229.13;;;8.07;54.35
36234;BME280;43467;50.890;5.982;2023-03-16T04:40:37;100238.00;;;8.04;54.03
36234;BME280;43467;50.890;5.982;2023-03-16T04:43:02;100228.63;;;7.95;53.93
36234;BME280;43467;50.890;5.982;2023-03-16T04:45:27;100225.13;;;7.95;53.61
36234;BME280;43467;50.890;5.982;2023-03-16T04:47:53;100217.28;;;7.93;53.92
36234;BME280;43467;50.890;5.982;2023-03-16T04:50:18;100218.16;;;7.94;53.83
36234;BME280;43467;50.890;5.982;2023-03-16T04:52:44;100213.84;;;7.91;53.89
36234;BME280;43467;50.890;5.982;2023-03-16T04:55:09;100210.91;;;7.99;53.73
36234;BME280;43467;50.890;5.982;2023-03-16T04:57:34;100204.38;;;7.86;53.59
36234;BME280;43467;50.890;5.982;2023-03-16T05:00:00;100217.41;;;7.90;54.10
36234;BME280;43467;50.890;5.982;2023-03-16T05:02:26;100215.88;;;7.83;54.26
36234;BME280;43467;50.890;5.982;2023-03-16T05:04:51;100211.44;;;7.85;54.27
36234;BME280;43467;50.890;5.982;2023-03-16T05:07:17;100220.25;;;7.84;53.80
36234;BME280;43467;50.890;5.982;2023-03-16T05:09:43;100214.78;;;7.90;53.68
36234;BME280;43467;50.890;5.982;2023-03-16T05:12:10;100204.44;;;7.84;53.95
36234;BME280;43467;50.890;5.982;2023-03-16T05:14:35;100203.53;;;7.85;53.57
36234;BME280;43467;50.890;5.982;2023-03-16T05:17:01;100206.91;;;7.89;53.60
36234;BME280;43467;50.890;5.982;2023-03-16T05:19:28;100206.47;;;8.01;53.75
36234;BME280;43467;50.890;5.982;2023-03-16T05:21:54;100205.66;;;7.99;53.69
36234;BME280;43467;50.890;5.982;2023-03-16T05:24:21;100203.78;;;8.03;53.35
36234;BME280;43467;50.890;5.982;2023-03-16T05:26:47;100203.78;;;8.03;53.88
36234;BME280;43467;50.890;5.982;2023-03-16T05:29:13;100204.69;;;8.02;53.71
36234;BME280;43467;50.890;5.982;2023-03-16T05:31:38;100209.91;;;8.03;53.87
36234;BME280;43467;50.890;5.982;2023-03-16T05:34:03;100210.19;;;7.95;53.81
36234;BME280;43467;50.890;5.982;2023-03-16T05:36:29;100208.41;;;7.96;53.62
36234;BME280;43467;50.890;5.982;2023-03-16T05:38:54;100213.94;;;7.88;53.89
36234;BME280;43467;50.890;5.982;2023-03-16T05:41:20;100216.91;;;7.79;54.42
36234;BME280;43467;50.890;5.982;2023-03-16T05:43:47;100209.66;;;7.86;53.94
36234;BME280;43467;50.890;5.982;2023-03-16T05:46:12;100209.44;;;7.92;53.83
36234;BME280;43467;50.890;5.982;2023-03-16T05:48:38;100210.00;;;8.00;54.01
36234;BME280;43467;50.890;5.982;2023-03-16T05:51:04;100202.81;;;8.05;53.85
36234;BME280;43467;50.890;5.982;2023-03-16T05:53:33;100207.91;;;8.10;54.08
36234;BME280;43467;50.890;5.982;2023-03-16T05:55:59;100206.31;;;8.06;53.96
36234;BME280;43467;50.890;5.982;2023-03-16T05:58:25;100214.97;;;8.09;54.19
36234;BME280;43467;50.890;5.982;2023-03-16T06:00:51;100208.09;;;8.05;53.89
36234;BME280;43467;50.890;5.982;2023-03-16T06:03:16;100212.59;;;8.02;54.25
36234;BME280;43467;50.890;5.982;2023-03-16T06:05:42;100208.66;;;8.13;53.97
36234;BME280;43467;50.890;5.982;2023-03-16T06:08:07;100203.34;;;8.15;54.22
36234;BME280;43467;50.890;5.982;2023-03-16T06:10:34;100190.09;;;8.16;54.05
36234;BME280;43467;50.890;5.982;2023-03-16T06:12:59;100188.16;;;8.21;53.97
36234;BME280;43467;50.890;5.982;2023-03-16T06:15:25;100200.59;;;8.18;53.86
36234;BME280;43467;50.890;5.982;2023-03-16T06:17:51;100193.63;;;8.15;53.80
36234;BME280;43467;50.890;5.982;2023-03-16T06:20:17;100195.38;;;8.16;53.73
36234;BME280;43467;50.890;5.982;2023-03-16T06:22:42;100188.19;;;8.20;53.83
36234;BME280;43467;50.890;5.982;2023-03-16T06:25:10;100181.59;;;8.08;54.36
36234;BME280;43467;50.890;5.982;2023-03-16T06:27:36;100178.59;;;8.19;54.42
36234;BME280;43467;50.890;5.982;2023-03-16T06:30:04;100179.25;;;8.24;54.66
36234;BME280;43467;50.890;5.982;2023-03-16T06:32:30;100178.47;;;8.22;54.41
36234;BME280;43467;50.890;5.982;2023-03-16T06:34:55;100185.84;;;8.37;54.43
36234;BME280;43467;50.890;5.982;2023-03-16T06:37:23;100189.56;;;8.31;54.33
36234;BME280;43467;50.890;5.982;2023-03-16T06:39:49;100199.28;;;8.31;54.60
36234;BME280;43467;50.890;5.982;2023-03-16T06:42:14;100188.00;;;8.26;54.17
36234;BME280;43467;50.890;5.982;2023-03-16T06:44:39;100184.09;;;8.36;54.42
36234;BME280;43467;50.890;5.982;2023-03-16T06:47:05;100191.69;;;8.45;54.08
36234;BME280;43467;50.890;5.982;2023-03-16T06:49:31;100189.75;;;8.50;54.14
36234;BME280;43467;50.890;5.982;2023-03-16T06:51:56;100189.31;;;8.61;53.83
36234;BME280;43467;50.890;5.982;2023-03-16T06:54:23;100184.13;;;8.59;53.76
36234;BME280;43467;50.890;5.982;2023-03-16T06:56:49;100177.97;;;8.59;53.96
36234;BME280;43467;50.890;5.982;2023-03-16T06:59:14;100170.66;;;8.65;53.38
36234;BME280;43467;50.890;5.982;2023-03-16T07:01:39;100166.25;;;8.66;53.71
36234;BME280;43467;50.890;5.982;2023-03-16T07:04:06;100167.91;;;8.68;53.85
36234;BME280;43467;50.890;5.982;2023-03-16T07:06:32;100176.69;;;8.69;53.65
36234;BME280;43467;50.890;5.982;2023-03-16T07:08:57;100185.47;;;8.69;53.41
36234;BME280;43467;50.890;5.982;2023-03-16T07:11:23;100183.56;;;8.73;53.46
36234;BME280;43467;50.890;5.982;2023-03-16T07:13:48;100175.56;;;8.76;53.74
36234;BME280;43467;50.890;5.982;2023-03-16T07:16:13;100182.69;;;8.72;53.46
36234;BME280;43467;50.890;5.982;2023-03-16T07:18:39;100185.25;;;8.75;53.91
36234;BME280;43467;50.890;5.982;2023-03-16T07:21:08;100184.06;;;8.82;54.13
36234;BME280;43467;50.890;5.982;2023-03-16T07:23:33;100183.25;;;8.80;54.01
36234;BME280;43467;50.890;5.982;2023-03-16T07:25:59;100191.94;;;8.84;54.12
36234;BME280;43467;50.890;5.982;2023-03-16T07:28:24;100190.97;;;8.86;54.20
36234;BME280;43467;50.890;5.982;2023-03-16T07:30:51;100182.44;;;8.80;54.49
36234;BME280;43467;50.890;5.982;2023-03-16T07:33:16;100200.69;;;8.84;54.06
36234;BME280;43467;50.890;5.982;2023-03-16T07:35:41;100194.16;;;8.95;54.12
36234;BME280;43467;50.890;5.982;2023-03-16T07:38:07;100194.09;;;8.96;54.01
36234;BME280;43467;50.890;5.982;2023-03-16T07:40:35;100180.09;;;8.94;54.64
36234;BME280;43467;50.890;5.982;2023-03-16T07:43:00;100192.97;;;9.02;54.67
36234;BME280;43467;50.890;5.982;2023-03-16T07:45:26;100190.34;;;9.02;54.60
36234;BME280;43467;50.890;5.982;2023-03-16T07:47:51;100188.34;;;9.08;54.77
36234;BME280;43467;50.890;5.982;2023-03-16T07:50:16;100188.34;;;9.08;55.03
36234;BME280;43467;50.890;5.982;2023-03-16T07:52:43;100184.69;;;9.11;54.58
36234;BME280;43467;50.890;5.982;2023-03-16T07:55:10;100184.47;;;9.17;54.29
36234;BME280;43467;50.890;5.982;2023-03-16T07:57:36;100180.81;;;9.19;54.19
36234;BME280;43467;50.890;5.982;2023-03-16T08:00:04;100182.41;;;9.23;54.27
36234;BME280;43467;50.890;5.982;2023-03-16T08:02:30;100178.69;;;9.29;54.34
36234;BME280;43467;50.890;5.982;2023-03-16T08:04:55;100176.03;;;9.29;53.83
36234;BME280;43467;50.890;5.982;2023-03-16T08:07:21;100175.00;;;9.33;53.89
36234;BME280;43467;50.890;5.982;2023-03-16T08:09:46;100177.88;;;9.27;53.47
36234;BME280;43467;50.890;5.982;2023-03-16T08:12:11;100171.34;;;9.36;53.55
36234;BME280;43467;50.890;5.982;2023-03-16T08:14:37;100172.94;;;9.40;53.42
36234;BME280;43467;50.890;5.982;2023-03-16T08:17:04;100175.00;;;9.33;52.90
36234;BME280;43467;50.890;5.982;2023-03-16T08:19:31;100183.75;;;9.33;53.33
36234;BME280;43467;50.890;5.982;2023-03-16T08:21:56;100178.94;;;9.43;52.88
36234;BME280;43467;50.890;5.982;2023-03-16T08:24:25;100171.50;;;9.53;53.16
36234;BME280;43467;50.890;5.982;2023-03-16T08:26:51;100168.59;;;9.59;53.27
36234;BME280;43467;50.890;5.982;2023-03-16T08:29:16;100165.56;;;9.68;52.75
36234;BME280;43467;50.890;5.982;2023-03-16T08:31:43;100174.06;;;9.74;52.51
36234;BME280;43467;50.890;5.982;2023-03-16T08:34:09;100176.50;;;9.79;52.03
36234;BME280;43467;50.890;5.982;2023-03-16T08:36:35;100173.63;;;9.85;51.78
36234;BME280;43467;50.890;5.982;2023-03-16T08:39:01;100163.03;;;9.85;51.81
36234;BME280;43467;50.890;5.982;2023-03-16T08:41:27;100164.69;;;9.88;51.87
36234;BME280;43467;50.890;5.982;2023-03-16T08:43:55;100175.94;;;9.93;51.58
36234;BME280;43467;50.890;5.982;2023-03-16T08:46:20;100153.84;;;9.94;51.81
36234;BME280;43467;50.890;5.982;2023-03-16T08:48:46;100164.94;;;10.02;51.50
36234;BME280;43467;50.890;5.982;2023-03-16T08:51:12;100168.50;;;10.01;50.97
36234;BME280;43467;50.890;5.982;2023-03-16T08:53:38;100155.34;;;9.99;51.02
36234;BME280;43467;50.890;5.982;2023-03-16T08:56:05;100166.44;;;10.07;50.82
36234;BME280;43467;50.890;5.982;2023-03-16T08:58:32;100170.59;;;10.13;50.74
36234;BME280;43467;50.890;5.982;2023-03-16T09:00:59;100157.44;;;10.11;50.25
36234;BME280;43467;50.890;5.982;2023-03-16T09:03:25;100157.44;;;10.11;50.62
36234;BME280;43467;50.890;5.982;2023-03-16T09:05:50;100161.50;;;10.20;50.63
36234;BME280;43467;50.890;5.982;2023-03-16T09:08:17;100159.31;;;10.30;50.47
36234;BME280;43467;50.890;5.982;2023-03-16T09:10:42;100154.78;;;10.32;49.31
36234;BME280;43467;50.890;5.982;2023-03-16T09:13:09;100148.13;;;10.23;49.43
36234;BME280;43467;50.890;5.982;2023-03-16T09:15:34;100151.78;;;10.20;49.22
36234;BME280;43467;50.890;5.982;2023-03-16T09:18:00;100150.50;;;10.29;49.50
36234;BME280;43467;50.890;5.982;2023-03-16T09:20:28;100156.44;;;10.34;49.56
36234;BME280;43467;50.890;5.982;2023-03-16T09:22:55;100150.84;;;10.40;49.18
36234;BME280;43467;50.890;5.982;2023-03-16T09:25:21;100139.34;;;10.41;48.98
36234;BME280;43467;50.890;5.982;2023-03-16T09:27:47;100143.56;;;10.45;48.93
36234;BME280;43467;50.890;5.982;2023-03-16T09:30:12;100140.56;;;10.53;49.11
36234;BME280;43467;50.890;5.982;2023-03-16T09:32:38;100139.06;;;10.47;48.69
36234;BME280;43467;50.890;5.982;2023-03-16T09:35:04;100138.41;;;10.61;48.87
36234;BME280;43467;50.890;5.982;2023-03-16T09:37:31;100132.97;;;10.64;48.47
36234;BME280;43467;50.890;5.982;2023-03-16T09:39:57;100130.19;;;10.67;48.97
36234;BME280;43467;50.890;5.982;2023-03-16T09:42:50;100131.44;;;10.77;48.37
36234;BME280;43467;50.890;5.982;2023-03-16T09:45:55;100131.63;;;10.55;47.32
36234;BME280;43467;50.890;5.982;2023-03-16T09:48:24;100129.44;;;10.82;48.62
36234;BME280;43467;50.890;5.982;2023-03-16T09:50:52;100128.38;;;10.86;48.06
36234;BME280;43467;50.890;5.982;2023-03-16T09:53:36;100129.72;;;10.95;47.54
36234;BME280;43467;50.890;5.982;2023-03-16T09:56:09;100122.41;;;11.00;47.83
36234;BME280;43467;50.890;5.982;2023-03-16T09:58:36;100127.72;;;11.00;47.90
36234;BME280;43467;50.890;5.982;2023-03-16T10:06:18;100112.28;;;11.08;47.67
36234;BME280;43467;50.890;5.982;2023-03-16T10:08:51;100111.91;;;11.15;47.75
36234;BME280;43467;50.890;5.982;2023-03-16T10:11:22;100101.84;;;11.22;47.68
36234;BME280;43467;50.890;5.982;2023-03-16T10:16:31;100111.03;;;11.15;47.18
36234;BME280;43467;50.890;5.982;2023-03-16T10:19:16;100106.50;;;11.17;46.41
36234;BME280;43467;50.890;5.982;2023-03-16T10:21:44;100105.91;;;11.12;46.55
36234;BME280;43467;50.890;5.982;2023-03-16T10:24:43;100098.72;;;11.14;46.29
36234;BME280;43467;50.890;5.982;2023-03-16T10:27:19;100095.22;;;11.31;46.69
36234;BME280;43467;50.890;5.982;2023-03-16T10:29:47;100089.91;;;11.31;46.65
36234;BME280;43467;50.890;5.982;2023-03-16T10:32:16;100097.56;;;11.37;46.32
36234;BME280;43467;50.890;5.982;2023-03-16T10:34:47;100091.88;;;11.44;46.36
36234;BME280;43467;50.890;5.982;2023-03-16T10:37:17;100089.13;;;11.46;45.76
36234;BME280;43467;50.890;5.982;2023-03-16T10:39:44;100081.56;;;11.55;45.30
36234;BME280;43467;50.890;5.982;2023-03-16T10:42:15;100087.50;;;11.60;45.29
36234;BME280;43467;50.890;5.982;2023-03-16T10:44:41;100081.47;;;11.74;45.47
36234;BME280;43467;50.890;5.982;2023-03-16T10:47:20;100083.59;;;11.85;44.82
36234;BME280;43467;50.890;5.982;2023-03-16T10:49:46;100083.25;;;11.91;44.76
36234;BME280;43467;50.890;5.982;2023-03-16T10:52:28;100082.03;;;11.81;43.87
36234;BME280;43467;50.890;5.982;2023-03-16T10:55:08;100085.03;;;11.90;44.72
36234;BME280;43467;50.890;5.982;2023-03-16T10:57:35;100082.66;;;11.86;44.52
36234;BME280;43467;50.890;5.982;2023-03-16T11:02:33;100064.56;;;12.09;44.90
36234;BME280;43467;50.890;5.982;2023-03-16T11:05:11;100042.97;;;12.00;44.22
36234;BME280;43467;50.890;5.982;2023-03-16T11:07:37;100071.53;;;11.95;44.56
36234;BME280;43467;50.890;5.982;2023-03-16T11:10:12;100070.53;;;12.13;44.45
36234;BME280;43467;50.890;5.982;2023-03-16T11:12:49;100074.06;;;12.29;44.92
36234;BME280;43467;50.890;5.982;2023-03-16T11:15:15;100077.47;;;12.31;44.40
36234;BME280;43467;50.890;5.982;2023-03-16T11:17:48;100067.72;;;12.16;43.35
36234;BME280;43467;50.890;5.982;2023-03-16T11:20:16;100067.34;;;12.06;43.66
36234;BME280;43467;50.890;5.982;2023-03-16T11:22:45;100076.72;;;12.14;44.23
36234;BME280;43467;50.890;5.982;2023-03-16T11:27:45;100064.31;;;12.14;44.09
36234;BME280;43467;50.890;5.982;2023-03-16T11:30:33;100049.81;;;12.04;43.62
36234;BME280;43467;50.890;5.982;2023-03-16T11:33:00;100047.94;;;12.06;44.07
36234;BME280;43467;50.890;5.982;2023-03-16T11:35:33;100038.75;;;12.11;44.44
36234;BME280;43467;50.890;5.982;2023-03-16T11:38:15;100050.75;;;12.19;43.76
36234;BME280;43467;50.890;5.982;2023-03-16T11:57:13;100011.59;;;12.69;43.26
36234;BME280;43467;50.890;5.982;2023-03-16T12:05:41;100012.78;;;12.79;42.49
36234;BME280;43467;50.890;5.982;2023-03-16T12:08:21;99995.72;;;12.83;42.65
36234;BME280;43467;50.890;5.982;2023-03-16T12:14:12;100001.16;;;13.12;42.43
36234;BME280;43467;50.890;5.982;2023-03-16T12:16:34;99996.25;;;13.04;41.92
36234;BME280;43467;50.890;5.982;2023-03-16T12:19:13;99985.66;;;13.18;41.87
36234;BME280;43467;50.890;5.982;2023-03-16T12:21:44;99982.53;;;13.12;41.83
36234;BME280;43467;50.890;5.982;2023-03-16T12:24:20;99979.41;;;13.19;41.80
36234;BME280;43467;50.890;5.982;2023-03-16T12:26:48;99978.00;;;13.28;41.79
36234;BME280;43467;50.890;5.982;2023-03-16T12:29:26;99971.28;;;13.36;41.38
36234;BME280;43467;50.890;5.982;2023-03-16T12:32:01;99959.78;;;13.36;41.70
36234;BME280;43467;50.890;5.982;2023-03-16T12:34:40;99952.75;;;13.35;41.60
36234;BME280;43467;50.890;5.982;2023-03-16T12:42:49;99953.81;;;13.61;41.86
36234;BME280;43467;50.890;5.982;2023-03-16T12:48:27;99930.88;;;13.58;40.38
36234;BME280;43467;50.890;5.982;2023-03-16T12:51:00;99936.56;;;13.66;41.10
36234;BME280;43467;50.890;5.982;2023-03-16T12:53:53;99931.13;;;13.82;41.70
36234;BME280;43467;50.890;5.982;2023-03-16T12:56:28;99926.09;;;13.91;41.80
36234;BME280;43467;50.890;5.982;2023-03-16T12:58:56;99923.50;;;14.04;41.16
36234;BME280;43467;50.890;5.982;2023-03-16T13:01:35;99911.50;;;14.11;41.71
36234;BME280;43467;50.890;5.982;2023-03-16T13:04:09;99925.50;;;14.27;40.80
36234;BME280;43467;50.890;5.982;2023-03-16T13:06:36;99916.22;;;14.20;40.36
36234;BME280;43467;50.890;5.982;2023-03-16T13:09:06;99915.72;;;14.28;40.23
36234;BME280;43467;50.890;5.982;2023-03-16T13:11:46;99912.63;;;14.21;39.85
36234;BME280;43467;50.890;5.982;2023-03-16T13:14:37;99888.81;;;14.18;40.01
36234;BME280;43467;50.890;5.982;2023-03-16T13:17:28;99894.31;;;14.29;39.88
36234;BME280;43467;50.890;5.982;2023-03-16T13:25:44;99888.53;;;14.50;40.97
36234;BME280;43467;50.890;5.982;2023-03-16T13:28:27;99885.06;;;14.62;40.31
36234;BME280;43467;50.890;5.982;2023-03-16T13:30:53;99885.59;;;14.67;40.52
36234;BME280;43467;50.890;5.982;2023-03-16T13:33:25;99877.50;;;14.81;40.39
36234;BME280;43467;50.890;5.982;2023-03-16T13:35:53;99878.13;;;14.84;40.49
36234;BME280;43467;50.890;5.982;2023-03-16T13:38:23;99869.94;;;15.00;40.15
36234;BME280;43467;50.890;5.982;2023-03-16T13:41:08;99868.97;;;15.14;40.54
36234;BME280;43467;50.890;5.982;2023-03-16T13:43:37;99860.66;;;15.18;39.44
36234;BME280;43467;50.890;5.982;2023-03-16T13:46:17;99859.38;;;15.24;39.66
36234;BME280;43467;50.890;5.982;2023-03-16T13:48:45;99858.22;;;15.28;39.25
36234;BME280;43467;50.890;5.982;2023-03-16T13:51:19;99858.16;;;15.41;40.23
36234;BME280;43467;50.890;5.982;2023-03-16T13:53:45;99852.41;;;15.47;39.19
36234;BME280;43467;50.890;5.982;2023-03-16T13:56:16;99834.69;;;15.46;38.75
36234;BME280;43467;50.890;5.982;2023-03-16T13:58:48;99836.00;;;15.53;39.52
36234;BME280;43467;50.890;5.982;2023-03-16T14:01:26;99828.72;;;15.55;38.74